Terminal Aerodrome Forecast
Issued by NWS Knoxville/Tri Cities, TN

Home | Current Version | Previous Version | Text Only | Print | Product List | Glossary On
Versions: 1 2 3 4 5 6 7 8 9 10 11 12 13 14 15 16 17 18
000
FTUS44 KMRX 300525
TAFTRI
TAF
KTRI 300525Z 3006/0106 VRB03KT P6SM BKN150
     FM301700 19006KT P6SM SCT050 BKN120
     FM302000 18008KT P6SM VCTS SCT040CB BKN060
      TEMPO 3020/3022 3SM SHRA BR BKN035 OVC080
     FM010300 VRB03KT P6SM VCSH BKN050 OVC100=

USA.gov is the U.S. government's official web portal to all federal, state and local government web resources and services.